Time;durP1;ratioP1;P1;durP2;ratioP2;P2;SDS_P1;SDS_P2;PMS_P1;PMS_P2;Temp;Humidity;BMP_temperature;BMP_pressure;BME280_temperature;BME280_humidity;BME280_pressure;Samples;Min_cycle;Max_cycle;Signal;HPM_P1;HPM_P2
2023/06/12 00:01:29;;;;;;;7.90;7.20;;;17.00;99.90;;;;;;5117198;28;20466;-58
2023/06/12 00:03:57;;;;;;;8.47;7.77;;;17.00;99.90;;;;;;5117523;28;20467;-57
2023/06/12 00:06:24;;;;;;;8.60;7.80;;;16.80;99.90;;;;;;5117537;28;20922;-57
2023/06/12 00:08:52;;;;;;;8.17;7.37;;;16.90;99.90;;;;;;5117703;28;20463;-57
2023/06/12 00:11:21;;;;;;;9.67;7.10;;;16.80;99.90;;;;;;5116905;28;20491;-57
2023/06/12 00:13:50;;;;;;;8.13;7.40;;;16.70;99.90;;;;;;5117314;28;20499;-57
2023/06/12 00:16:17;;;;;;;8.73;7.67;;;16.60;1.00;;;;;;5117229;28;20499;-58
2023/06/12 00:18:45;;;;;;;7.57;6.97;;;16.60;1.00;;;;;;5117463;28;20947;-57
2023/06/12 00:21:13;;;;;;;14.00;8.20;;;16.60;1.00;;;;;;5117451;28;21321;-58
2023/06/12 00:23:41;;;;;;;8.60;7.90;;;16.60;1.00;;;;;;5116997;28;20477;-57
2023/06/12 00:26:09;;;;;;;7.93;7.23;;;16.60;1.00;;;;;;5121026;28;20467;-56
2023/06/12 00:28:36;;;;;;;7.70;7.00;;;16.40;1.00;;;;;;5121566;28;20482;-58
2023/06/12 00:31:05;;;;;;;9.80;8.80;;;16.40;1.00;;;;;;5121289;28;20907;-57
2023/06/12 00:33:32;;;;;;;8.33;7.53;;;16.40;1.00;;;;;;5121280;28;20459;-57
2023/06/12 00:35:59;;;;;;;8.90;7.30;;;16.40;1.00;;;;;;5121075;28;20463;-57
2023/06/12 00:38:26;;;;;;;8.47;7.07;;;16.40;1.00;;;;;;5121493;28;20748;-58
2023/06/12 00:40:54;;;;;;;8.10;7.40;;;16.20;1.00;;;;;;5121394;28;20741;-58
2023/06/12 00:43:21;;;;;;;9.30;7.73;;;16.20;1.00;;;;;;5121143;28;20911;-57
2023/06/12 00:45:48;;;;;;;8.10;7.37;;;16.10;1.00;;;;;;5120897;28;20558;-58
2023/06/12 00:48:17;;;;;;;8.10;7.40;;;16.10;1.00;;;;;;5120799;28;20455;-58
2023/06/12 00:50:45;;;;;;;8.73;7.93;;;16.10;1.00;;;;;;5120908;28;20595;-58
2023/06/12 00:53:15;;;;;;;7.10;6.50;;;16.10;1.00;;;;;;5120771;28;20757;-57
2023/06/12 00:55:43;;;;;;;8.17;7.47;;;16.00;1.00;;;;;;5120502;28;20463;-58
2023/06/12 00:58:10;;;;;;;9.43;8.50;;;16.00;1.00;;;;;;5120473;28;20836;-57
2023/06/12 01:00:38;;;;;;;7.83;7.13;;;15.90;1.00;;;;;;5121068;28;20740;-57
2023/06/12 01:03:08;;;;;;;8.90;7.40;;;15.90;1.00;;;;;;5120226;28;20487;-57
2023/06/12 01:05:40;;;;;;;8.23;7.43;;;15.90;27.10;;;;;;5120252;28;20558;-57
2023/06/12 01:08:21;;;;;;;10.20;8.53;;;15.90;11.30;;;;;;5120372;28;20554;-57
2023/06/12 01:10:53;;;;;;;8.23;7.43;;;15.90;1.00;;;;;;5120451;28;20931;-58
2023/06/12 01:13:21;;;;;;;8.13;7.43;;;15.80;12.70;;;;;;5120013;28;20478;-57
2023/06/12 01:15:49;;;;;;;9.20;8.30;;;15.70;57.50;;;;;;5120550;28;20459;-57
2023/06/12 01:18:17;;;;;;;8.50;7.60;;;15.80;1.00;;;;;;5120059;28;20558;-58
2023/06/12 01:20:45;;;;;;;8.60;7.80;;;15.60;1.00;;;;;;5120734;28;20455;-58
2023/06/12 01:23:20;;;;;;;10.00;7.70;;;15.70;1.00;;;;;;5120008;28;20462;-58
2023/06/12 01:26:08;;;;;;;8.60;7.90;;;15.60;1.00;;;;;;5119929;28;20459;-58
2023/06/12 01:29:11;;;;;;;7.73;7.13;;;15.60;1.00;;;;;;5120398;28;20531;-57
2023/06/12 01:31:45;;;;;;;8.47;7.40;;;15.60;1.00;;;;;;5116762;28;20497;-57
2023/06/12 01:34:21;;;;;;;9.10;8.20;;;15.60;1.00;;;;;;5119975;28;20459;-58
2023/06/12 01:36:54;;;;;;;7.70;6.90;;;15.50;13.40;;;;;;5119884;28;20471;-58
2023/06/12 01:39:26;;;;;;;8.50;7.60;;;15.50;12.50;;;;;;5119478;28;20493;-57
2023/06/12 01:41:54;;;;;;;9.50;8.63;;;15.50;14.60;;;;;;5119635;28;20550;-58
2023/06/12 01:44:21;;;;;;;9.30;8.40;;;15.50;26.60;;;;;;5119909;28;20464;-57
2023/06/12 01:46:49;;;;;;;8.77;8.03;;;15.40;99.90;;;;;;5120038;28;20459;-58
2023/06/12 01:49:17;;;;;;;8.40;7.70;;;15.40;99.90;;;;;;5119598;27;20464;-58
2023/06/12 01:51:44;;;;;;;8.30;7.50;;;15.30;99.90;;;;;;5119521;28;20498;-58
2023/06/12 01:54:11;;;;;;;8.43;7.40;;;15.30;99.90;;;;;;5119245;28;20459;-57
2023/06/12 01:56:38;;;;;;;9.17;8.20;;;15.30;99.90;;;;;;5119949;28;20459;-58
2023/06/12 01:59:06;;;;;;;8.30;7.40;;;15.30;99.90;;;;;;5119641;28;20463;-59
2023/06/12 02:01:33;;;;;;;8.10;7.40;;;15.30;99.90;;;;;;5118952;28;20451;-57
2023/06/12 02:04:00;;;;;;;8.03;7.33;;;15.20;99.90;;;;;;5119680;28;20460;-57
2023/06/12 02:06:29;;;;;;;8.60;7.33;;;15.20;99.90;;;;;;5119657;28;20467;-58
2023/06/12 02:08:56;;;;;;;9.27;7.07;;;15.10;99.90;;;;;;5119103;28;20463;-58
2023/06/12 02:11:23;;;;;;;9.10;8.30;;;15.00;99.90;;;;;;5119025;28;20768;-57
2023/06/12 02:13:50;;;;;;;10.23;7.90;;;15.00;99.90;;;;;;5118777;28;20476;-58
2023/06/12 02:16:20;;;;;;;8.40;7.60;;;15.00;99.90;;;;;;5119195;28;20459;-58
2023/06/12 02:18:48;;;;;;;8.10;7.40;;;15.10;99.90;;;;;;5119210;28;20554;-58
2023/06/12 02:21:15;;;;;;;8.17;7.47;;;15.00;99.90;;;;;;5118843;28;20767;-58
2023/06/12 02:23:43;;;;;;;7.70;7.00;;;15.00;99.90;;;;;;5118740;28;20487;-57
2023/06/12 02:26:11;;;;;;;8.83;7.93;;;15.00;99.90;;;;;;5119119;28;20470;-58
2023/06/12 02:28:41;;;;;;;8.07;7.30;;;14.90;99.90;;;;;;5118922;28;20967;-58
2023/06/12 02:31:08;;;;;;;8.17;7.37;;;14.90;99.90;;;;;;5118969;28;20463;-58
2023/06/12 02:33:37;;;;;;;7.90;7.23;;;14.80;99.90;;;;;;5118746;28;20479;-57
2023/06/12 02:36:05;;;;;;;8.83;7.93;;;14.80;99.90;;;;;;5119096;28;20974;-58
2023/06/12 02:38:32;;;;;;;7.50;6.80;;;14.80;99.90;;;;;;5118768;28;20434;-59
2023/06/12 02:41:01;;;;;;;8.43;7.70;;;14.80;99.90;;;;;;5118758;28;20459;-58
2023/06/12 02:43:28;;;;;;;7.53;6.83;;;14.80;99.90;;;;;;5118533;28;20464;-58
2023/06/12 02:45:56;;;;;;;7.70;7.00;;;14.70;99.90;;;;;;5118435;28;20459;-58
2023/06/12 02:48:23;;;;;;;8.40;7.60;;;14.60;99.90;;;;;;5117969;28;20467;-58
2023/06/12 02:50:50;;;;;;;9.47;7.80;;;14.60;99.90;;;;;;5118613;28;20557;-58
2023/06/12 02:53:17;;;;;;;8.67;7.77;;;14.60;99.90;;;;;;5117953;28;20492;-58
2023/06/12 02:55:44;;;;;;;8.80;7.90;;;14.60;99.90;;;;;;5118158;28;20559;-58
2023/06/12 02:58:13;;;;;;;8.70;7.90;;;14.60;99.90;;;;;;5118202;28;20459;-57
2023/06/12 03:00:40;;;;;;;9.03;8.20;;;14.60;99.90;;;;;;5118505;28;20893;-58
2023/06/12 03:03:08;;;;;;;8.97;8.07;;;14.60;99.90;;;;;;5118171;28;20487;-58
2023/06/12 03:05:36;;;;;;;9.27;8.37;;;14.60;99.90;;;;;;5118580;28;20463;-58
2023/06/12 03:08:03;;;;;;;9.30;8.40;;;14.60;99.90;;;;;;5118401;28;20490;-57
2023/06/12 03:10:30;;;;;;;8.87;8.07;;;14.50;99.90;;;;;;5117818;28;20460;-58
2023/06/12 03:12:59;;;;;;;9.00;8.10;;;14.50;99.90;;;;;;5118234;28;20493;-58
2023/06/12 03:15:28;;;;;;;8.90;8.07;;;14.50;99.90;;;;;;5118300;28;20521;-58
2023/06/12 03:17:55;;;;;;;9.17;8.27;;;14.50;1.00;;;;;;5118154;28;20463;-58
2023/06/12 03:20:24;;;;;;;9.57;8.43;;;14.50;1.00;;;;;;5117600;28;20459;-58
2023/06/12 03:22:51;;;;;;;7.60;6.80;;;14.50;1.00;;;;;;5118181;28;20512;-58
2023/06/12 03:25:19;;;;;;;9.60;8.03;;;14.40;1.00;;;;;;5117872;28;20459;-58
2023/06/12 03:27:46;;;;;;;8.90;8.10;;;14.40;1.00;;;;;;5118143;28;20456;-58
2023/06/12 03:30:14;;;;;;;8.53;7.73;;;14.30;1.00;;;;;;5118170;28;20451;-58
2023/06/12 03:32:42;;;;;;;8.90;8.13;;;14.30;1.00;;;;;;5117131;28;20487;-58
2023/06/12 03:35:10;;;;;;;9.13;8.33;;;14.30;1.00;;;;;;5117947;28;20466;-57
2023/06/12 03:37:37;;;;;;;9.27;8.40;;;14.40;1.00;;;;;;5118136;28;20460;-57
2023/06/12 03:40:05;;;;;;;8.70;7.90;;;14.40;1.00;;;;;;5118169;28;20744;-57
2023/06/12 03:42:32;;;;;;;9.87;7.80;;;14.40;1.00;;;;;;5117437;28;20467;-59
2023/06/12 03:45:00;;;;;;;9.23;8.33;;;14.40;1.00;;;;;;5117699;28;20748;-58
2023/06/12 03:47:27;;;;;;;8.93;8.20;;;14.40;1.00;;;;;;5117996;28;20750;-58
2023/06/12 03:49:55;;;;;;;9.40;8.40;;;14.40;1.00;;;;;;5117684;28;20459;-58
2023/06/12 03:52:23;;;;;;;8.60;7.80;;;14.40;1.00;;;;;;5117454;28;20455;-58
2023/06/12 03:54:50;;;;;;;9.90;8.57;;;14.40;1.00;;;;;;5117392;28;20529;-58
2023/06/12 03:57:17;;;;;;;8.40;7.60;;;14.40;1.00;;;;;;5117487;28;20463;-58
2023/06/12 03:59:44;;;;;;;8.50;7.70;;;14.40;1.00;;;;;;5119011;28;20459;-58
2023/06/12 04:02:11;;;;;;;10.73;8.50;;;14.40;1.00;;;;;;5121689;28;20491;-57
2023/06/12 04:04:38;;;;;;;9.30;8.13;;;14.50;1.00;;;;;;5121591;28;20900;-57
2023/06/12 04:07:07;;;;;;;8.90;8.10;;;14.50;1.00;;;;;;5121646;28;20471;-59
2023/06/12 04:09:34;;;;;;;8.77;7.97;;;14.60;1.00;;;;;;5121764;28;20456;-58
2023/06/12 04:12:02;;;;;;;9.10;7.60;;;14.70;1.00;;;;;;5122026;28;20824;-58
2023/06/12 04:14:30;;;;;;;10.00;7.93;;;14.70;1.00;;;;;;5121468;27;20504;-58
2023/06/12 04:16:57;;;;;;;8.10;7.30;;;14.70;1.00;;;;;;5121478;28;20459;-58
2023/06/12 04:19:25;;;;;;;9.63;8.80;;;14.80;1.00;;;;;;5121546;28;20463;-58
2023/06/12 04:21:52;;;;;;;11.00;7.87;;;14.70;1.00;;;;;;5121548;28;20487;-58
2023/06/12 04:24:22;;;;;;;8.37;7.60;;;14.80;99.90;;;;;;5117655;28;20463;-58
2023/06/12 04:26:49;;;;;;;10.10;9.20;;;14.80;99.90;;;;;;5120344;28;20513;-58
2023/06/12 04:29:17;;;;;;;8.03;7.33;;;14.90;99.90;;;;;;5120910;28;20562;-58
2023/06/12 04:31:44;;;;;;;9.23;8.33;;;14.90;99.90;;;;;;5119030;28;20471;-57
2023/06/12 04:34:15;;;;;;;9.20;7.70;;;14.90;99.90;;;;;;5107969;28;20472;-58
2023/06/12 04:36:43;;;;;;;9.33;8.53;;;15.00;99.90;;;;;;5115937;28;20459;-58
2023/06/12 04:39:10;;;;;;;8.60;7.90;;;15.00;99.90;;;;;;5118711;27;20537;-58
2023/06/12 04:41:40;;;;;;;8.97;8.10;;;15.10;99.90;;;;;;5120014;28;20477;-58
2023/06/12 04:44:08;;;;;;;11.50;8.80;;;15.20;1.00;;;;;;5120891;28;20459;-58
2023/06/12 04:46:35;;;;;;;14.00;9.20;;;15.20;1.00;;;;;;5119488;28;20472;-58
2023/06/12 04:49:03;;;;;;;9.87;8.67;;;15.30;1.00;;;;;;5111615;28;20470;-58
2023/06/12 04:51:30;;;;;;;9.90;8.90;;;15.40;1.00;;;;;;5120316;28;20452;-58
2023/06/12 04:54:01;;;;;;;10.87;8.50;;;15.50;1.00;;;;;;5120429;28;20868;-58
2023/06/12 04:56:28;;;;;;;10.97;9.20;;;15.60;1.00;;;;;;5118156;28;20468;-58
2023/06/12 04:58:56;;;;;;;18.30;8.30;;;15.70;1.00;;;;;;5112079;28;20455;-58
2023/06/12 05:01:24;;;;;;;12.80;8.53;;;15.80;99.90;;;;;;5116527;28;20923;-58
2023/06/12 05:03:52;;;;;;;12.57;8.70;;;16.00;99.90;;;;;;5118987;27;21046;-58
2023/06/12 05:06:20;;;;;;;11.03;8.70;;;16.10;99.90;;;;;;5118482;28;20549;-57
2023/06/12 05:08:47;;;;;;;11.77;8.20;;;16.10;99.90;;;;;;5116239;28;20877;-59
2023/06/12 05:11:15;;;;;;;18.83;9.33;;;16.30;99.90;;;;;;5115428;28;20813;-57
2023/06/12 05:13:42;;;;;;;13.50;9.13;;;16.40;99.90;;;;;;5119502;28;20918;-58
2023/06/12 05:16:10;;;;;;;9.87;8.17;;;16.50;99.90;;;;;;5114407;28;20478;-57
2023/06/12 05:18:37;;;;;;;9.13;8.23;;;16.60;99.90;;;;;;5108792;28;20467;-58
2023/06/12 05:21:06;;;;;;;8.87;7.97;;;16.70;99.90;;;;;;5105606;28;20474;-57
2023/06/12 05:23:33;;;;;;;13.90;9.10;;;16.80;92.00;;;;;;5118406;28;20491;-58
2023/06/12 05:26:00;;;;;;;10.27;8.47;;;17.00;99.90;;;;;;5114235;28;20460;-57
2023/06/12 05:28:27;;;;;;;9.70;8.70;;;17.10;45.40;;;;;;5112288;28;20464;-58
2023/06/12 05:30:55;;;;;;;9.53;8.73;;;17.30;1.00;;;;;;5114081;28;20474;-59
2023/06/12 05:33:23;;;;;;;9.87;8.23;;;17.50;1.00;;;;;;5114793;28;20470;-61
2023/06/12 05:35:50;;;;;;;10.70;8.80;;;17.70;1.00;;;;;;5118423;28;20494;-60
2023/06/12 05:38:18;;;;;;;9.73;8.50;;;17.90;99.90;;;;;;5119481;28;20455;-59
2023/06/12 05:40:45;;;;;;;9.03;8.10;;;18.10;99.90;;;;;;5119706;28;20864;-61
2023/06/12 05:43:12;;;;;;;9.53;8.70;;;18.40;99.90;;;;;;5118772;28;20484;-60
2023/06/12 05:45:39;;;;;;;9.90;8.90;;;18.70;99.90;;;;;;5116624;28;20467;-60
2023/06/12 05:48:07;;;;;;;15.93;9.73;;;19.00;99.90;;;;;;5104262;28;20468;-60
2023/06/12 05:50:35;;;;;;;19.73;10.40;;;19.30;99.90;;;;;;5119177;28;20876;-61
2023/06/12 05:53:04;;;;;;;16.77;9.37;;;19.50;99.90;;;;;;5119263;28;20538;-61
2023/06/12 05:55:31;;;;;;;11.70;9.00;;;19.80;99.90;;;;;;5119002;28;20891;-61
2023/06/12 05:57:58;;;;;;;11.07;8.47;;;20.10;99.90;;;;;;5117717;28;20506;-61
2023/06/12 06:00:26;;;;;;;14.03;8.07;;;20.30;99.90;;;;;;5117769;28;20459;-60
2023/06/12 06:02:53;;;;;;;9.33;8.33;;;20.60;99.90;;;;;;5113634;28;20492;-61
2023/06/12 06:05:20;;;;;;;8.13;7.43;;;20.90;99.90;;;;;;5115819;28;20540;-61
2023/06/12 06:07:50;;;;;;;9.17;8.37;;;21.20;88.80;;;;;;5117441;28;20778;-62
2023/06/12 06:10:17;;;;;;;8.13;7.33;;;21.50;43.70;;;;;;5116973;28;20496;-62
2023/06/12 06:12:44;;;;;;;8.80;7.77;;;21.70;1.00;;;;;;5116812;28;20460;-62
2023/06/12 06:15:12;;;;;;;8.87;8.03;;;21.90;1.00;;;;;;5117112;28;20455;-61
2023/06/12 06:17:39;;;;;;;8.53;7.70;;;22.00;1.00;;;;;;5117552;28;20462;-62
2023/06/12 06:20:08;;;;;;;8.47;7.67;;;22.30;1.00;;;;;;5118052;28;20456;-61
2023/06/12 06:22:35;;;;;;;8.87;8.07;;;22.50;1.00;;;;;;5117270;28;20553;-61
2023/06/12 06:25:05;;;;;;;8.40;7.60;;;22.50;1.00;;;;;;5117837;28;20542;-60
2023/06/12 06:27:32;;;;;;;8.23;7.40;;;22.50;1.00;;;;;;5118842;28;20462;-61
2023/06/12 06:30:00;;;;;;;10.60;8.00;;;22.60;1.00;;;;;;5118907;28;20550;-61
2023/06/12 06:32:27;;;;;;;7.37;6.77;;;22.70;1.00;;;;;;5099120;28;20748;-61
2023/06/12 06:34:54;;;;;;;8.43;7.63;;;22.70;1.00;;;;;;5106890;28;20472;-60
2023/06/12 06:37:21;;;;;;;8.13;7.43;;;22.90;1.00;;;;;;5112629;28;20459;-60
2023/06/12 06:39:48;;;;;;;8.90;6.97;;;23.00;99.90;;;;;;5117969;28;20460;-61
2023/06/12 06:42:17;;;;;;;8.70;7.97;;;23.30;1.00;;;;;;5116676;28;20485;-61
2023/06/12 06:44:44;;;;;;;7.10;6.60;;;23.60;1.00;;;;;;5116528;28;20940;-61
2023/06/12 06:47:12;;;;;;;9.27;8.37;;;23.90;1.00;;;;;;5116734;28;20499;-61
2023/06/12 06:49:39;;;;;;;8.67;7.90;;;24.10;99.90;;;;;;5117100;28;20454;-61
2023/06/12 06:52:08;;;;;;;8.60;7.87;;;24.00;99.90;;;;;;5117103;28;20455;-62
2023/06/12 06:54:35;;;;;;;8.50;7.70;;;24.00;99.90;;;;;;5118180;28;20546;-61
2023/06/12 06:57:02;;;;;;;10.80;7.60;;;24.30;99.90;;;;;;5109169;28;20832;-63
2023/06/12 06:59:31;;;;;;;8.30;7.70;;;24.60;99.90;;;;;;5117499;28;20471;-61
2023/06/12 07:01:58;;;;;;;9.00;8.10;;;25.00;99.90;;;;;;5108894;28;20946;-60
2023/06/12 07:04:25;;;;;;;8.00;7.30;;;25.30;99.90;;;;;;5107476;28;20491;-60
2023/06/12 07:06:52;;;;;;;7.50;6.90;;;25.00;99.90;;;;;;5114901;28;20466;-60
2023/06/12 07:09:21;;;;;;;8.60;7.90;;;25.00;99.90;;;;;;5116658;28;20578;-60
2023/06/12 07:11:48;;;;;;;9.13;8.43;;;25.40;99.90;;;;;;5117286;28;20608;-61
2023/06/12 07:14:15;;;;;;;8.90;8.17;;;25.80;99.90;;;;;;5117419;28;20466;-59
2023/06/12 07:16:45;;;;;;;8.20;7.60;;;25.60;99.90;;;;;;5114493;28;20478;-61
2023/06/12 07:19:12;;;;;;;9.27;8.40;;;25.60;99.90;;;;;;5117766;28;20463;-61
2023/06/12 07:21:40;;;;;;;8.80;8.10;;;25.80;99.90;;;;;;5117178;28;20563;-60
2023/06/12 07:24:07;;;;;;;8.23;7.43;;;25.70;99.90;;;;;;5117820;28;20574;-60
2023/06/12 07:26:34;;;;;;;8.70;8.00;;;25.90;99.90;;;;;;5116448;28;20455;-60
2023/06/12 07:29:03;;;;;;;8.97;8.27;;;26.30;99.90;;;;;;5116898;28;20960;-61
2023/06/12 07:31:31;;;;;;;8.30;7.70;;;26.10;99.90;;;;;;5114632;28;20562;-59
2023/06/12 07:33:59;;;;;;;8.77;7.30;;;25.90;99.90;;;;;;5116731;28;20455;-59
2023/06/12 07:36:26;;;;;;;8.63;7.63;;;26.10;99.90;;;;;;5099920;28;20876;-58
2023/06/12 07:38:54;;;;;;;8.93;8.03;;;26.00;99.90;;;;;;5114622;28;20483;-60
2023/06/12 07:41:21;;;;;;;8.27;7.57;;;25.80;99.90;;;;;;5117154;28;20633;-59
2023/06/12 07:43:48;;;;;;;8.57;7.87;;;25.50;89.80;;;;;;5117024;28;20487;-58
2023/06/12 07:46:16;;;;;;;9.03;8.23;;;25.20;63.30;;;;;;5117635;28;20823;-59
2023/06/12 07:48:43;;;;;;;8.87;8.27;;;25.50;99.90;;;;;;5117522;28;20491;-59
2023/06/12 07:51:12;;;;;;;9.20;8.30;;;26.10;99.90;;;;;;5117628;28;20546;-61
2023/06/12 07:53:39;;;;;;;10.17;8.50;;;26.70;99.90;;;;;;5117706;28;20455;-61
2023/06/12 07:56:07;;;;;;;9.17;8.20;;;27.30;99.90;;;;;;5114903;28;20460;-60
2023/06/12 07:58:37;;;;;;;9.20;8.40;;;27.70;99.90;;;;;;5117392;28;20463;-60
2023/06/12 08:01:05;;;;;;;8.60;7.90;;;26.60;69.00;;;;;;5115781;28;20463;-60
2023/06/12 08:03:38;;;;;;;9.30;8.40;;;27.10;99.90;;;;;;5116434;28;20495;-60
2023/06/12 08:06:06;;;;;;;10.20;9.20;;;27.40;90.60;;;;;;5117094;28;20487;-60
2023/06/12 08:08:42;;;;;;;10.27;8.10;;;27.70;99.90;;;;;;5114099;28;20479;-58
2023/06/12 08:11:10;;;;;;;7.63;7.03;;;28.50;99.90;;;;;;5113770;28;20467;-62
2023/06/12 08:13:37;;;;;;;7.03;6.47;;;29.00;64.90;;;;;;5100949;28;20463;-65
2023/06/12 08:16:05;;;;;;;7.50;6.90;;;29.30;40.80;;;;;;5117568;28;20551;-58
2023/06/12 08:18:32;;;;;;;7.53;6.97;;;29.30;1.00;;;;;;5117008;28;20474;-59
2023/06/12 08:21:00;;;;;;;7.70;7.10;;;29.50;1.00;;;;;;5116835;28;20487;-62
2023/06/12 08:23:27;;;;;;;8.40;7.17;;;29.70;1.00;;;;;;5117431;28;20487;-58
2023/06/12 08:25:56;;;;;;;7.20;6.60;;;29.90;1.00;;;;;;5111162;28;20983;-60
2023/06/12 08:28:23;;;;;;;7.60;7.00;;;30.00;1.00;;;;;;5115480;28;20462;-61
2023/06/12 08:30:57;;;;;;;7.03;6.50;;;30.10;1.00;;;;;;5104772;28;20475;-58
2023/06/12 08:33:24;;;;;;;6.47;6.07;;;30.00;1.00;;;;;;5126390;28;20458;-59
2023/06/12 08:35:52;;;;;;;7.20;6.70;;;30.10;1.00;;;;;;5118561;28;20456;-60
2023/06/12 08:38:19;;;;;;;9.13;7.30;;;30.50;1.00;;;;;;5113051;28;20472;-56
2023/06/12 08:40:48;;;;;;;7.80;7.17;;;30.60;1.00;;;;;;5117057;28;20891;-60
2023/06/12 08:43:17;;;;;;;8.90;7.20;;;30.70;1.00;;;;;;5116046;28;20795;-59
2023/06/12 08:45:47;;;;;;;6.77;6.37;;;30.70;1.00;;;;;;5113818;28;20478;-60
2023/06/12 08:48:18;;;;;;;7.03;6.53;;;30.70;1.00;;;;;;5112138;28;20975;-60
2023/06/12 08:50:47;;;;;;;7.50;6.90;;;30.40;1.00;;;;;;5118282;28;20815;-62
2023/06/12 08:53:16;;;;;;;6.67;6.27;;;30.30;1.00;;;;;;5120861;28;20495;-58
2023/06/12 08:55:44;;;;;;;6.13;5.73;;;30.40;1.00;;;;;;5120596;28;20757;-64
2023/06/12 08:58:12;;;;;;;7.13;6.63;;;30.50;1.00;;;;;;5120493;28;20465;-62
2023/06/12 09:00:41;;;;;;;6.93;6.37;;;30.60;1.00;;;;;;5119934;28;20462;-59
2023/06/12 09:03:08;;;;;;;6.80;6.30;;;30.80;1.00;;;;;;5120256;28;20545;-62
2023/06/12 09:05:37;;;;;;;7.43;6.73;;;30.80;1.00;;;;;;5120085;28;20498;-59
2023/06/12 09:08:06;;;;;;;7.67;7.00;;;30.80;1.00;;;;;;5120897;28;20584;-60
2023/06/12 09:10:33;;;;;;;7.50;7.00;;;30.70;1.00;;;;;;5120332;28;20751;-59
2023/06/12 09:13:05;;;;;;;8.00;7.40;;;30.40;1.00;;;;;;5119160;28;20466;-60
2023/06/12 09:15:33;;;;;;;7.37;6.67;;;30.20;1.00;;;;;;5120334;28;20459;-61
2023/06/12 09:18:02;;;;;;;7.43;6.93;;;30.30;1.00;;;;;;5120758;28;20455;-59
2023/06/12 09:20:32;;;;;;;8.03;7.33;;;30.60;1.00;;;;;;5120392;28;20462;-63
2023/06/12 09:23:01;;;;;;;7.47;6.90;;;30.90;1.00;;;;;;5117578;28;20468;-67
2023/06/12 09:25:33;;;;;;;7.20;6.70;;;31.20;1.00;;;;;;5112714;28;20543;-64
2023/06/12 09:28:03;;;;;;;7.90;7.30;;;31.20;1.00;;;;;;5112331;28;20474;-64
2023/06/12 09:30:31;;;;;;;6.73;6.33;;;31.50;1.00;;;;;;5116749;28;20499;-62
2023/06/12 09:33:02;;;;;;;8.33;7.03;;;31.40;1.00;;;;;;5103757;28;20479;-64
2023/06/12 09:35:30;;;;;;;6.97;6.47;;;31.60;1.00;;;;;;5101559;28;20928;-63
2023/06/12 09:37:58;;;;;;;7.93;6.77;;;31.80;1.00;;;;;;5119307;28;20490;-64
2023/06/12 09:40:25;;;;;;;7.70;6.80;;;31.70;1.00;;;;;;5119119;28;20516;-63
2023/06/12 09:42:52;;;;;;;7.00;6.50;;;31.70;1.00;;;;;;5118767;28;20473;-64
2023/06/12 09:45:23;;;;;;;8.67;8.00;;;32.00;1.00;;;;;;5117685;28;20501;-64
2023/06/12 09:47:52;;;;;;;7.77;7.20;;;32.00;1.00;;;;;;5118286;28;20455;-64
2023/06/12 09:50:22;;;;;;;8.57;8.00;;;32.20;1.00;;;;;;5115575;28;20478;-64
2023/06/12 09:52:50;;;;;;;8.47;7.87;;;32.50;1.00;;;;;;5111156;28;20459;-65
2023/06/12 09:55:18;;;;;;;7.70;6.93;;;32.70;1.00;;;;;;5114960;28;20455;-63
2023/06/12 09:57:49;;;;;;;7.80;7.10;;;32.80;1.00;;;;;;5114307;28;20458;-63
2023/06/12 10:00:17;;;;;;;8.20;7.60;;;32.70;1.00;;;;;;5112657;28;20490;-61
2023/06/12 10:02:55;;;;;;;7.07;6.57;;;32.20;1.00;;;;;;5112904;28;20520;-63
2023/06/12 10:05:25;;;;;;;7.17;6.70;;;32.00;1.00;;;;;;5112863;28;21025;-63
2023/06/12 10:07:55;;;;;;;7.17;6.60;;;31.70;1.00;;;;;;5104305;28;20890;-63
2023/06/12 10:10:23;;;;;;;6.93;6.37;;;31.40;1.00;;;;;;5119497;28;20742;-65
2023/06/12 10:12:52;;;;;;;7.60;6.83;;;31.00;1.00;;;;;;5118492;28;20459;-65
2023/06/12 10:15:21;;;;;;;8.43;7.73;;;30.50;1.00;;;;;;5117199;28;20512;-62
2023/06/12 10:17:52;;;;;;;8.00;7.47;;;30.40;1.00;;;;;;5119117;28;20864;-62
2023/06/12 10:20:20;;;;;;;8.20;7.70;;;30.50;1.00;;;;;;5118829;28;20516;-62
2023/06/12 10:23:13;;;;;;;7.60;7.20;;;31.30;1.00;;;;;;5116508;28;20471;-65
2023/06/12 10:25:40;;;;;;;8.10;7.50;;;32.20;1.00;;;;;;5098449;28;20491;-63
2023/06/12 10:28:26;;;;;;;8.00;7.50;;;32.90;1.00;;;;;;5101754;28;20520;-64
2023/06/12 10:31:16;;;;;;;8.00;7.20;;;33.30;1.00;;;;;;5116764;28;20843;-65
2023/06/12 10:34:21;;;;;;;8.53;7.93;;;33.30;1.00;;;;;;5115531;28;20758;-62
2023/06/12 10:36:49;;;;;;;6.80;6.37;;;33.70;1.00;;;;;;5117611;28;20888;-62
2023/06/12 10:39:25;;;;;;;7.40;6.90;;;33.80;1.00;;;;;;5117980;28;20475;-65
2023/06/12 10:41:54;;;;;;;7.73;7.13;;;34.20;1.00;;;;;;5118475;28;20765;-63
2023/06/12 10:44:44;;;;;;;7.37;6.87;;;34.50;1.00;;;;;;5115380;27;21067;-64
2023/06/12 10:47:21;;;;;;;8.03;7.33;;;34.70;1.00;;;;;;5113495;28;20528;-65
2023/06/12 10:50:00;;;;;;;7.73;7.23;;;34.90;1.00;;;;;;5095880;28;20465;-65
2023/06/12 10:52:28;;;;;;;7.13;6.70;;;35.10;1.00;;;;;;5111959;28;20516;-64
2023/06/12 10:55:31;;;;;;;7.97;7.47;;;34.70;1.00;;;;;;5118185;28;20883;-65
2023/06/12 10:58:12;;;;;;;8.30;7.70;;;34.70;1.00;;;;;;5118191;28;20462;-64
2023/06/12 11:00:45;;;;;;;7.10;6.60;;;34.80;1.00;;;;;;5114269;28;20467;-64
2023/06/12 11:03:14;;;;;;;7.57;6.97;;;34.90;1.00;;;;;;5106162;28;20552;-60
2023/06/12 11:05:47;;;;;;;8.00;7.50;;;34.40;1.00;;;;;;5108672;28;20490;-65
2023/06/12 11:08:15;;;;;;;8.50;7.20;;;33.30;1.00;;;;;;5115667;28;21060;-62
2023/06/12 11:10:47;;;;;;;7.40;6.90;;;33.20;1.00;;;;;;5116279;28;20489;-63
2023/06/12 11:13:18;;;;;;;7.70;7.10;;;33.50;1.00;;;;;;5116406;28;20459;-63
2023/06/12 11:15:54;;;;;;;8.27;7.57;;;34.00;1.00;;;;;;5116911;27;20550;-64
2023/06/12 11:18:25;;;;;;;8.87;7.53;;;34.20;1.00;;;;;;5117464;28;20901;-63
2023/06/12 11:20:54;;;;;;;8.40;7.63;;;34.00;1.00;;;;;;5117602;28;20989;-65
2023/06/12 11:23:26;;;;;;;7.30;6.80;;;33.40;1.00;;;;;;5117363;28;20853;-66
2023/06/12 11:25:56;;;;;;;6.67;6.10;;;33.60;1.00;;;;;;5118300;28;20910;-65
2023/06/12 11:28:27;;;;;;;7.27;6.67;;;33.80;1.00;;;;;;5111923;28;20533;-65
2023/06/12 11:31:19;;;;;;;8.93;8.23;;;33.30;1.00;;;;;;5116049;28;20508;-63
2023/06/12 11:33:51;;;;;;;7.47;6.97;;;32.90;1.00;;;;;;5114670;28;20847;-60
2023/06/12 11:36:19;;;;;;;8.83;8.20;;;32.90;1.00;;;;;;5110235;27;20866;-62
2023/06/12 11:38:46;;;;;;;8.63;7.80;;;32.80;1.00;;;;;;5115893;28;20459;-62
2023/06/12 11:41:15;;;;;;;8.23;7.63;;;33.10;1.00;;;;;;5115109;28;20497;-64
2023/06/12 11:43:44;;;;;;;9.60;7.60;;;33.90;1.00;;;;;;5117520;28;20486;-64
2023/06/12 11:46:12;;;;;;;7.97;7.30;;;34.50;1.00;;;;;;5113263;28;20461;-64
2023/06/12 11:48:47;;;;;;;8.50;7.73;;;34.90;1.00;;;;;;5114962;28;20471;-64
2023/06/12 11:51:14;;;;;;;8.90;8.30;;;35.00;1.00;;;;;;5117686;28;20549;-65
2023/06/12 11:53:42;;;;;;;7.90;7.40;;;35.00;1.00;;;;;;5118862;28;20458;-64
2023/06/12 11:56:09;;;;;;;6.93;6.53;;;34.70;1.00;;;;;;5117754;28;20455;-64
2023/06/12 11:58:41;;;;;;;7.07;6.57;;;35.00;1.00;;;;;;5116318;28;20490;-65
2023/06/12 12:01:13;;;;;;;7.80;7.00;;;35.50;1.00;;;;;;5117231;28;20463;-61
2023/06/12 12:03:44;;;;;;;7.73;7.20;;;35.70;2.50;;;;;;5117996;28;20482;-65
2023/06/12 12:06:11;;;;;;;7.70;7.20;;;35.30;1.00;;;;;;5117527;28;20461;-65
2023/06/12 12:08:51;;;;;;;8.60;7.90;;;35.30;1.00;;;;;;5117159;28;20292;-66
2023/06/12 12:11:20;;;;;;;7.10;6.50;;;35.20;1.00;;;;;;5117065;28;20212;-65
2023/06/12 12:13:53;;;;;;;8.27;7.57;;;34.70;1.00;;;;;;5117761;28;20205;-63
2023/06/12 12:16:26;;;;;;;8.43;7.83;;;33.50;1.00;;;;;;5117427;28;20537;-64
2023/06/12 12:18:53;;;;;;;9.23;8.40;;;32.70;1.00;;;;;;5117459;28;20463;-65
2023/06/12 12:21:23;;;;;;;8.87;8.27;;;32.20;1.00;;;;;;5120243;28;20462;-65
2023/06/12 12:23:50;;;;;;;8.10;7.50;;;31.80;1.00;;;;;;5121343;28;20498;-63
2023/06/12 12:26:18;;;;;;;8.37;7.77;;;31.10;1.00;;;;;;5121038;28;20513;-64
2023/06/12 12:28:45;;;;;;;8.60;8.00;;;30.60;1.00;;;;;;5121851;28;20467;-64
2023/06/12 12:31:14;;;;;;;8.43;7.93;;;30.70;1.00;;;;;;5121661;28;20465;-64
2023/06/12 12:33:41;;;;;;;7.63;7.13;;;30.70;1.00;;;;;;5121590;28;20463;-64
2023/06/12 12:36:10;;;;;;;8.30;7.53;;;30.80;1.00;;;;;;5121376;28;20451;-64
2023/06/12 12:38:37;;;;;;;8.77;8.07;;;30.90;1.00;;;;;;5120964;28;20459;-64
2023/06/12 12:41:04;;;;;;;8.83;8.10;;;31.10;1.00;;;;;;5120731;28;20772;-64
2023/06/12 12:43:37;;;;;;;8.17;7.57;;;31.00;1.00;;;;;;5121157;28;20843;-64
2023/06/12 12:46:05;;;;;;;9.53;8.83;;;31.00;1.00;;;;;;5120961;28;20487;-62
2023/06/12 12:48:34;;;;;;;8.43;7.90;;;30.90;1.00;;;;;;5119889;28;20875;-63
2023/06/12 12:51:01;;;;;;;8.90;8.27;;;31.00;1.00;;;;;;5113020;28;20498;-62
2023/06/12 12:53:29;;;;;;;9.00;8.10;;;31.00;1.00;;;;;;5119729;28;20466;-63
2023/06/12 12:55:56;;;;;;;9.53;8.83;;;30.80;1.00;;;;;;5123347;28;20550;-64
2023/06/12 12:58:24;;;;;;;8.50;7.90;;;30.50;1.00;;;;;;5119895;28;20555;-64
2023/06/12 13:00:52;;;;;;;9.60;8.63;;;30.40;1.00;;;;;;5118811;28;20467;-64
2023/06/12 13:03:19;;;;;;;9.43;8.63;;;30.30;1.00;;;;;;5119757;28;20902;-64